Data for 11/11/2010

Time Sea-Level Adjusted Pressure Absolute Pressure Temperature Relative Humidity Dew Point   
(mb) (inHg) (mb) (inHg) (C) (F) (%) (C) (F)
00:05 1022 30.18 851 25.13 -4.2 24.5 87 -6 21.2
00:10 1022 30.18 851 25.13 -4.2 24.5 87 -6 21.2
00:15 1022 30.18 851 25.13 -4.2 24.5 88 -5.9 21.4
00:20 1022 30.18 851 25.13 -4.1 24.6 88 -5.8 21.6
00:25 1022 30.18 851 25.13 -4.1 24.6 88 -5.8 21.6
00:30 1022 30.18 851 25.13 -4.1 24.6 88 -5.8 21.6
00:35 1022 30.18 851 25.13 -4.1 24.6 88 -5.8 21.6
00:40 1022 30.18 851 25.13 -4.2 24.5 89 -5.7 21.7
00:45 1022 30.18 851 25.13 -4.2 24.5 89 -5.8 21.6
00:50 1022 30.18 851 25.13 -4.2 24.5 89 -5.7 21.7
00:55 1022 30.18 851 25.13 -4.2 24.4 89 -5.7 21.7
01:00 1022 30.18 851 25.13 -4.2 24.4 90 -5.7 21.7
01:05 1022 30.18 851 25.13 -4.3 24.2 90 -5.8 21.6
01:10 1022 30.18 851 25.13 -4.4 24.1 90 -5.8 21.6
01:15 1022 30.18 851 25.13 -4.4 24.1 90 -5.8 21.6
01:20 1022 30.18 851 25.13 -4.4 24.1 89 -5.9 21.4
01:25 1022 30.18 851 25.13 -4.5 24 89 -5.9 21.3
01:30 1022 30.18 851 25.13 -4.4 24 89 -5.9 21.4
01:35 1022 30.18 851 25.13 -4.4 24 89 -6 21.2
01:40 1022 30.18 851 25.13 -4.4 24 90 -5.9 21.4
01:45 1022 30.18 851 25.13 -4.2 24.5 87 -6 21.2
01:50 1022 30.18 851 25.13 -4.1 24.7 87 -5.9 21.3
01:55 1022 30.18 851 25.13 -4.1 24.6 87 -5.9 21.3
02:00 1022 30.18 851 25.13 -4.2 24.5 87 -6 21.1
02:05 1022 30.18 851 25.13 -4.4 24 88 -6.1 21
02:10 1022 30.18 851 25.13 -4.6 23.7 89 -6.1 21
02:15 1022 30.18 851 25.13 -4.6 23.8 89 -6.1 20.9
02:20 1022 30.18 851 25.13 -4.5 23.8 88 -6.2 20.8
02:25 1022 30.18 851 25.13 -4.6 23.6 89 -6.3 20.7
02:30 1022 30.18 852 25.16 -4.8 23.3 89 -6.3 20.6
02:35 1022 30.18 852 25.16 -4.9 23.1 90 -6.3 20.6
02:40 1022 30.18 852 25.16 -5 23 90 -6.4 20.5
02:45 1022 30.18 852 25.16 -5.1 22.8 90 -6.4 20.4
02:50 1022 30.18 852 25.16 -5.1 22.8 90 -6.5 20.3
02:55 1022 30.18 852 25.16 -4.9 23.1 89 -6.5 20.2
03:00 1022 30.18 852 25.16 -4.9 23.1 88 -6.6 20.2
03:05 1022 30.18 852 25.16 -4.8 23.3 88 -6.6 20.2
03:10 1022 30.18 852 25.16 -4.8 23.4 88 -6.5 20.3
03:15 1022 30.18 852 25.16 -4.7 23.5 88 -6.4 20.4
03:20 1022 30.18 852 25.16 -4.8 23.3 88 -6.4 20.4
03:25 1022 30.18 852 25.16 -4.9 23.3 88 -6.5 20.3
03:30 1022 30.18 851 25.13 -4.9 23.2 89 -6.5 20.3
03:35 1022 30.18 851 25.13 -4.8 23.3 88 -6.5 20.3
03:40 1022 30.18 851 25.13 -4.7 23.5 87 -6.5 20.3
03:45 1022 30.18 851 25.13 -4.7 23.5 88 -6.4 20.5
03:50 1022 30.18 852 25.16 -4.9 23.2 89 -6.5 20.4
03:55 1022 30.18 852 25.16 -4.9 23.1 88 -6.6 20.1
04:00 1022 30.18 852 25.16 -4.8 23.4 87 -6.6 20.2
04:05 1022 30.18 852 25.16 -4.7 23.5 87 -6.5 20.2
04:10 1022 30.18 852 25.16 -4.8 23.3 88 -6.5 20.2
04:15 1022 30.18 852 25.16 -4.8 23.3 88 -6.5 20.3
04:20 1022 30.18 852 25.16 -4.9 23.3 88 -6.5 20.3
04:25 1023 30.21 852 25.16 -4.9 23.2 89 -6.5 20.3
04:30 1023 30.21 852 25.16 -4.9 23.3 88 -6.6 20.2
04:35 1023 30.21 852 25.16 -4.8 23.3 87 -6.6 20.1
04:40 1023 30.21 852 25.16 -4.8 23.3 87 -6.6 20.1
04:45 1023 30.21 852 25.16 -4.8 23.3 87 -6.6 20.1
04:50 1023 30.21 852 25.16 -4.8 23.4 88 -6.5 20.3
04:55 1023 30.21 852 25.16 -4.8 23.3 88 -6.6 20.2
05:00 1023 30.21 852 25.16 -4.8 23.4 86 -6.8 19.7
05:05 1023 30.21 852 25.16 -4.7 23.6 85 -6.8 19.8
05:10 1023 30.21 852 25.16 -4.7 23.6 86 -6.7 19.9
05:15 1023 30.21 852 25.16 -4.7 23.5 86 -6.7 19.9
05:20 1023 30.21 852 25.16 -4.7 23.5 85 -6.9 19.7
05:25 1023 30.21 852 25.16 -4.7 23.6 84 -6.9 19.5
05:30 1023 30.21 852 25.16 -4.6 23.7 84 -6.9 19.5
05:35 1023 30.21 852 25.16 -4.6 23.7 84 -7 19.5
05:40 1023 30.21 852 25.16 -4.6 23.7 84 -6.9 19.7
05:45 1023 30.21 852 25.16 -4.6 23.7 85 -6.8 19.8
05:50 1023 30.21 852 25.16 -4.6 23.8 83 -7 19.4
05:55 1023 30.21 852 25.16 -4.4 24 82 -7.1 19.3
06:00 1023 30.21 852 25.16 -4.2 24.4 76 -7.8 18
06:05 1023 30.21 852 25.16 -3.7 25.4 73 -7.9 17.8
06:10 1023 30.21 852 25.16 -3.4 25.9 69 -8.3 17
06:15 1023 30.21 852 25.16 -3.3 26.1 70 -8 17.5
06:20 1023 30.21 852 25.16 -3.3 26.1 71 -7.7 18.1
06:25 1023 30.21 852 25.16 -3.5 25.7 74 -7.5 18.5
06:30 1023 30.21 852 25.16 -3.8 25.2 75 -7.6 18.2
06:35 1023 30.21 852 25.16 -3.7 25.4 75 -7.5 18.5
06:40 1023 30.21 852 25.16 -3.5 25.7 73 -7.7 18.2
06:45 1023 30.21 852 25.16 -3.4 25.9 73 -7.6 18.3
06:50 1023 30.21 853 25.19 -3.5 25.7 76 -7.2 19.1
06:55 1023 30.21 853 25.19 -3.7 25.4 78 -6.9 19.5
07:00 1023 30.21 853 25.19 -4 24.8 81 -6.7 19.9
07:05 1024 30.24 853 25.19 -4.1 24.6 78 -7.3 18.8
07:10 1024 30.24 853 25.19 -3.9 24.9 74 -7.9 17.7
07:15 1024 30.24 853 25.19 -3.7 25.3 75 -7.5 18.5
07:20 1024 30.24 853 25.19 -3.6 25.5 73 -7.8 18
07:25 1024 30.24 853 25.19 -3.2 26.2 67 -8.4 16.8
07:30 1024 30.24 853 25.19 -3 26.7 71 -7.5 18.4
07:35 1024 30.24 853 25.19 -2.8 26.9 74 -6.8 19.7
07:40 1024 30.24 853 25.19 -2.9 26.9 77 -6.4 20.5
07:45 1024 30.24 853 25.19 -3 26.6 71 -7.6 18.3
07:50 1024 30.24 853 25.19 -2.7 27.1 66 -8.2 17.3
07:55 1024 30.24 853 25.19 -2.8 27 66 -8.3 17.1
08:00 1024 30.24 853 25.19 -2.6 27.2 63 -8.8 16.1
08:05 1024 30.24 853 25.19 -2.5 27.4 62 -8.9 16.1
08:10 1024 30.24 853 25.19 -2.5 27.5 64 -8.4 16.9
08:15 1024 30.24 853 25.19 -2.7 27.2 66 -8.2 17.2
08:20 1024 30.24 853 25.19 -2.6 27.3 64 -8.5 16.8
08:25 1024 30.24 853 25.19 -2.6 27.4 65 -8.2 17.2
08:30 1024 30.24 853 25.19 -2.5 27.4 65 -8.3 17.1
08:35 1024 30.24 853 25.19 -2.5 27.5 66 -8 17.6
08:40 1024 30.24 853 25.19 -2.6 27.4 66 -8.1 17.5
08:45 1024 30.24 853 25.19 -2.5 27.4 67 -7.8 17.9
08:50 1024 30.24 853 25.19 -2.5 27.5 67 -7.8 17.9
08:55 1024 30.24 853 25.19 -2.4 27.6 65 -8.1 17.5
09:00 1024 30.24 853 25.19 -2.3 27.8 66 -7.8 18
09:05 1024 30.24 853 25.19 -2.3 27.9 65 -7.9 17.7
09:10 1024 30.24 853 25.19 -2.2 28 66 -7.8 18
09:15 1024 30.24 853 25.19 -2.2 28.1 65 -7.8 17.9
09:20 1024 30.24 853 25.19 -2.2 28.1 65 -7.8 18
09:25 1024 30.24 853 25.19 -2.1 28.2 65 -7.9 17.8
09:30 1024 30.24 853 25.19 -2 28.3 65 -7.7 18.2
09:35 1024 30.24 853 25.19 -1.9 28.5 65 -7.6 18.3
09:40 1024 30.24 853 25.19 -1.9 28.6 63 -8 17.6
09:45 1024 30.24 853 25.19 -1.8 28.8 65 -7.5 18.5
09:50 1024 30.24 853 25.19 -1.7 28.9 65 -7.5 18.4
09:55 1024 30.24 853 25.19 -1.6 29.2 63 -7.7 18.1
10:00 1024 30.24 853 25.19 -1.5 29.4 62 -7.8 18
10:05 1024 30.24 853 25.19 -1.3 29.6 62 -7.8 18
10:10 1024 30.24 853 25.19 -1.2 29.9 58 -8.5 16.8
10:15 1024 30.24 854 25.22 -0.9 30.3 59 -8 17.6
10:20 1024 30.24 854 25.22 -0.8 30.5 60 -7.7 18.2
10:25 1024 30.24 854 25.22 -0.8 30.6 57 -8.3 17.1
10:30 1024 30.24 854 25.22 -0.8 30.6 59 -7.9 17.7
10:35 1024 30.24 854 25.22 -0.7 30.7 57 -8.2 17.2
10:40 1024 30.24 854 25.22 -0.6 30.9 56 -8.4 16.9
10:45 1024 30.24 854 25.22 -0.5 31.1 58 -7.8 17.9
10:50 1025 30.27 854 25.22 -0.5 31.1 55 -8.4 16.8
10:55 1025 30.27 854 25.22 -0.3 31.5 56 -8 17.5
11:00 1025 30.27 854 25.22 -0.1 31.8 56 -7.9 17.8
11:05 1025 30.27 854 25.22 0 32 57 -7.5 18.5
11:10 1025 30.27 854 25.22 -0.1 31.8 60 -7 19.4
11:15 1025 30.27 854 25.22 0.1 32.1 55 -7.9 17.7
11:20 1024 30.24 854 25.22 0.1 32.2 54 -8.2 17.3
11:25 1024 30.24 854 25.22 0 32 53 -8.4 16.9
11:30 1025 30.27 854 25.22 0.1 32.2 54 -8.1 17.4
11:35 1024 30.24 854 25.22 0.3 32.5 54 -7.8 17.9
11:40 1024 30.24 854 25.22 0.4 32.7 51 -8.5 16.6
11:45 1024 30.24 854 25.22 0.4 32.6 53 -8.1 17.5
11:50 1024 30.24 853 25.19 0.5 33 53 -8 17.5
11:55 1024 30.24 853 25.19 0.5 32.9 50 -8.7 16.4
12:00 1024 30.24 853 25.19 0.8 33.5 53 -7.6 18.3
12:05 1024 30.24 853 25.19 0.9 33.7 53 -7.6 18.3
12:10 1024 30.24 853 25.19 1 33.8 54 -7.3 18.9
12:15 1024 30.24 853 25.19 1.3 34.3 52 -7.5 18.4
12:20 1024 30.24 854 25.22 1 33.8 53 -7.6 18.3
12:25 1024 30.24 854 25.22 1.5 34.7 53 -7 19.4
12:30 1024 30.24 854 25.22 1.4 34.4 55 -6.8 19.8
12:35 1024 30.24 854 25.22 0.9 33.5 59 -6.3 20.7
12:40 1024 30.24 854 25.22 1 33.8 55 -7 19.4
12:45 1024 30.24 854 25.22 1.2 34.2 57 -6.5 20.3
12:50 1024 30.24 854 25.22 1.1 34 59 -6.1 21
12:55 1024 30.24 854 25.22 1.1 34 55 -6.9 19.6
13:00 1024 30.24 854 25.22 1.1 34 56 -6.7 20
13:05 1025 30.27 854 25.22 1 33.8 54 -7.2 19
13:10 1025 30.27 854 25.22 1 33.8 55 -7 19.3
13:15 1025 30.27 854 25.22 1.2 34.1 55 -6.8 19.8
13:20 1025 30.27 854 25.22 1.3 34.3 56 -6.6 20.2
13:25 1025 30.27 854 25.22 1.4 34.5 56 -6.5 20.4
13:30 1025 30.27 854 25.22 1.4 34.5 57 -6.3 20.6
13:35 1025 30.27 854 25.22 1.5 34.7 56 -6.3 20.6
13:40 1025 30.27 854 25.22 1.6 34.9 58 -5.8 21.6
13:45 1025 30.27 854 25.22 1.7 35.1 55 -6.3 20.7
13:50 1025 30.27 854 25.22 1.8 35.3 55 -6.3 20.7
13:55 1025 30.27 854 25.22 1.8 35.3 54 -6.5 20.3
14:00 1025 30.27 854 25.22 1.9 35.4 55 -6.3 20.6
14:05 1025 30.27 854 25.22 1.9 35.5 55 -6.3 20.7
14:10 1025 30.27 854 25.22 1.8 35.3 55 -6.4 20.6
14:15 1025 30.27 854 25.22 1.7 35.1 56 -6 21.2
14:20 1025 30.27 854 25.22 1.7 35 56 -6.2 20.9
14:25 1025 30.27 854 25.22 1.7 35 54 -6.7 19.9
14:30 1025 30.27 854 25.22 1.7 35 54 -6.6 20.1
14:35 1025 30.27 854 25.22 1.8 35.3 54 -6.6 20.1
14:40 1025 30.27 854 25.22 1.9 35.3 53 -6.6 20.1
14:45 1025 30.27 854 25.22 1.9 35.5 52 -6.9 19.7
14:50 1025 30.27 854 25.22 1.9 35.5 53 -6.6 20
14:55 1025 30.27 854 25.22 1.9 35.4 52 -6.9 19.5
15:00 1025 30.27 854 25.22 1.8 35.2 50 -7.6 18.3
15:05 1025 30.27 854 25.22 1.8 35.3 51 -7.2 19.1
15:10 1025 30.27 854 25.22 1.9 35.5 51 -7.2 19
15:15 1025 30.27 854 25.22 1.9 35.5 52 -7 19.4
15:20 1025 30.27 854 25.22 2 35.6 53 -6.6 20.2
15:25 1025 30.27 854 25.22 2 35.6 50 -7.3 18.9
15:30 1025 30.27 854 25.22 2 35.7 52 -6.7 19.9
15:35 1025 30.27 854 25.22 2.1 35.8 52 -6.7 20
15:40 1025 30.27 854 25.22 2.1 35.7 52 -6.9 19.7
15:45 1025 30.27 854 25.22 2.1 35.8 51 -6.9 19.5
15:50 1025 30.27 854 25.22 2.4 36.3 51 -6.7 19.9
15:55 1025 30.27 854 25.22 3 37.4 48 -6.9 19.5
16:00 1025 30.27 854 25.22 2.9 37.3 50 -6.5 20.2
16:05 1025 30.27 854 25.22 3.2 37.7 49 -6.4 20.5
16:10 1025 30.27 855 25.25 3.4 38.1 48 -6.6 20.1
16:15 1025 30.27 855 25.25 3.4 38.2 49 -6.2 20.9
16:20 1025 30.27 855 25.25 3.2 37.8 51 -6.1 21.1
16:25 1025 30.27 855 25.25 2.7 36.9 52 -6.1 21
16:30 1025 30.27 855 25.25 2.2 35.9 54 -6.1 21
16:35 1026 30.3 855 25.25 1.9 35.5 56 -6 21.3
16:40 1026 30.3 855 25.25 1.8 35.2 54 -6.4 20.4
16:45 1026 30.3 855 25.25 1.7 35 58 -5.8 21.5
16:50 1026 30.3 855 25.25 1.1 33.9 58 -6.2 20.8
16:55 1026 30.3 855 25.25 0.9 33.6 59 -6.3 20.7
17:00 1026 30.3 855 25.25 0.6 33.1 59 -6.5 20.2
17:05 1026 30.3 855 25.25 0.4 32.6 62 -6 21.2
17:10 1026 30.3 855 25.25 -0.1 31.9 64 -6 21.2
17:15 1026 30.3 855 25.25 -0.5 31.1 64 -6.6 20.2
17:20 1026 30.3 855 25.25 -0.5 31.1 63 -6.8 19.8
17:25 1026 30.3 855 25.25 -0.5 31.1 64 -6.5 20.4
17:30 1026 30.3 855 25.25 -0.5 31 64 -6.5 20.2
17:35 1026 30.3 855 25.25 -0.5 31 63 -6.7 20
17:40 1026 30.3 855 25.25 -0.6 31 63 -6.8 19.8
17:45 1026 30.3 855 25.25 -0.5 31.2 63 -6.7 19.9
17:50 1026 30.3 855 25.25 -0.6 30.8 66 -6.1 21
17:55 1026 30.3 855 25.25 -0.8 30.6 64 -6.7 19.9
18:00 1026 30.3 855 25.25 -0.3 31.4 61 -6.9 19.6
18:05 1026 30.3 855 25.25 -0.1 31.9 59 -7.2 19
18:10 1026 30.3 855 25.25 -0 32 59 -7 19.4
18:15 1026 30.3 855 25.25 -0.2 31.6 61 -6.8 19.7
18:20 1026 30.3 855 25.25 -0.5 31.1 61 -7.1 19.3
18:25 1026 30.3 855 25.25 -0.7 30.8 66 -6.2 20.8
18:30 1026 30.3 855 25.25 -0.9 30.3 67 -6.3 20.7
18:35 1026 30.3 855 25.25 -1.3 29.6 69 -6.2 20.8
18:40 1025 30.27 855 25.25 -1.4 29.4 69 -6.5 20.4
18:45 1025 30.27 855 25.25 -1.5 29.3 69 -6.4 20.5
18:50 1025 30.27 855 25.25 -1.6 29.1 70 -6.3 20.6
18:55 1025 30.27 855 25.25 -1.6 29.2 70 -6.3 20.7
19:00 1025 30.27 855 25.25 -1.7 28.9 70 -6.4 20.5
19:05 1025 30.27 854 25.22 -1.8 28.8 71 -6.4 20.4
19:10 1025 30.27 855 25.25 -1.8 28.8 69 -6.7 20
19:15 1025 30.27 855 25.25 -1.9 28.7 73 -6.2 20.9
19:20 1025 30.27 855 25.25 -2.1 28.2 70 -6.8 19.8
19:25 1025 30.27 855 25.25 -2.1 28.3 70 -6.9 19.6
19:30 1025 30.27 855 25.25 -2 28.4 68 -7.1 19.2
19:35 1025 30.27 855 25.25 -2.1 28.3 68 -7.3 18.9
19:40 1025 30.27 855 25.25 -2.1 28.2 69 -7.1 19.1
19:45 1025 30.27 855 25.25 -2.3 28 69 -7.2 19.1
19:50 1025 30.27 855 25.25 -2.4 27.7 70 -7.2 19.1
19:55 1025 30.27 855 25.25 -2.6 27.3 71 -7.2 19.1
20:00 1025 30.27 855 25.25 -2.7 27.1 72 -7.1 19.2
20:05 1025 30.27 855 25.25 -2.8 27 70 -7.5 18.5
20:10 1025 30.27 855 25.25 -2.7 27.1 70 -7.4 18.6
20:15 1025 30.27 855 25.25 -2.8 27 70 -7.5 18.5
20:20 1025 30.27 855 25.25 -2.8 27 69 -7.6 18.3
20:25 1025 30.27 855 25.25 -2.7 27.1 69 -7.7 18.2
20:30 1025 30.27 855 25.25 -2.8 26.9 70 -7.6 18.4
20:35 1025 30.27 855 25.25 -2.9 26.7 69 -7.8 18
20:40 1025 30.27 855 25.25 -2.9 26.8 71 -7.5 18.5
20:45 1025 30.27 855 25.25 -3.1 26.5 70 -7.7 18.1
20:50 1025 30.27 855 25.25 -3 26.6 70 -7.8 18
20:55 1025 30.27 855 25.25 -3.1 26.4 70 -7.8 17.9
21:00 1026 30.3 855 25.25 -3.2 26.2 71 -7.7 18.1
21:05 1026 30.3 855 25.25 -3.2 26.2 71 -7.7 18.1
21:10 1026 30.3 855 25.25 -3.3 26 72 -7.8 18
21:15 1026 30.3 855 25.25 -3.4 25.9 71 -7.9 17.8
21:20 1026 30.3 855 25.25 -3.4 26 71 -7.9 17.8
21:25 1026 30.3 855 25.25 -3.3 26 71 -7.8 17.9
21:30 1026 30.3 855 25.25 -3.4 25.9 72 -7.7 18.1
21:35 1025 30.27 855 25.25 -3.5 25.8 71 -7.9 17.7
21:40 1025 30.27 855 25.25 -3.4 25.8 72 -7.7 18.1
21:45 1025 30.27 855 25.25 -3.5 25.6 72 -7.9 17.8
21:50 1026 30.3 855 25.25 -3.5 25.6 73 -7.7 18.1
21:55 1026 30.3 855 25.25 -3.8 25.2 74 -7.7 18.1
22:00 1026 30.3 855 25.25 -3.9 24.9 75 -7.7 18.1
22:05 1026 30.3 855 25.25 -4 24.7 75 -7.9 17.9
22:10 1025 30.27 855 25.25 -3.9 24.9 73 -8.1 17.5
22:15 1025 30.27 855 25.25 -3.9 25 75 -7.7 18.2
22:20 1025 30.27 855 25.25 -4.2 24.5 77 -7.7 18.2
22:25 1025 30.27 855 25.25 -4.3 24.3 79 -7.4 18.6
22:30 1025 30.27 855 25.25 -4.3 24.3 78 -7.5 18.4
22:35 1025 30.27 855 25.25 -4.3 24.2 78 -7.6 18.4
22:40 1025 30.27 855 25.25 -4.2 24.4 76 -7.8 17.9
22:45 1025 30.27 855 25.25 -3.9 25.1 75 -7.7 18.1
22:50 1025 30.27 855 25.25 -3.7 25.3 74 -7.6 18.2
22:55 1026 30.3 855 25.25 -3.7 25.3 74 -7.6 18.3
23:00 1026 30.3 855 25.25 -3.9 25 75 -7.7 18.2
23:05 1026 30.3 855 25.25 -3.9 25 75 -7.8 18
23:10 1026 30.3 855 25.25 -3.8 25.2 72 -8.1 17.5
23:15 1026 30.3 855 25.25 -3.6 25.6 71 -8 17.6
23:20 1026 30.3 855 25.25 -3.4 25.8 70 -8.1 17.5
23:25 1026 30.3 855 25.25 -3.5 25.7 72 -7.9 17.8
23:30 1026 30.3 855 25.25 -3.6 25.5 72 -7.9 17.7
23:35 1026 30.3 855 25.25 -3.7 25.3 74 -7.8 18
23:40 1026 30.3 855 25.25 -4 24.9 75 -7.7 18.1
23:45 1026 30.3 855 25.25 -4.1 24.6 76 -7.8 18
23:50 1026 30.3 855 25.25 -4.1 24.6 75 -8 17.6
23:55 1026 30.3 855 25.25 -4 24.8 74 -8 17.7
24:00 1026 30.3 855 25.25 -4 24.9 73 -8 17.5